createdAt,value
2022-10-14T00:00:10.096Z,28.10
2022-10-14T00:02:37.077Z,28.10
2022-10-14T00:05:04.288Z,28.30
2022-10-14T00:07:31.335Z,28.40
2022-10-14T00:09:58.375Z,28.50
2022-10-14T00:12:25.345Z,28.80
2022-10-14T00:14:52.278Z,28.80
2022-10-14T00:17:19.488Z,29.10
2022-10-14T00:19:46.550Z,29.10
2022-10-14T00:22:13.990Z,29.10
2022-10-14T00:24:41.021Z,29.30
2022-10-14T00:27:08.644Z,29.40
2022-10-14T00:29:36.009Z,29.50
2022-10-14T00:32:03.155Z,29.70
2022-10-14T00:34:30.717Z,29.80
2022-10-14T00:36:57.763Z,29.80
2022-10-14T00:39:24.704Z,29.80
2022-10-14T00:41:51.557Z,29.70
2022-10-14T00:44:18.528Z,29.80
2022-10-14T00:46:47.817Z,29.70
2022-10-14T00:49:17.854Z,29.80
2022-10-14T00:51:51.015Z,29.70
2022-10-14T00:54:20.969Z,29.90
2022-10-14T00:56:48.929Z,29.90
2022-10-14T00:59:16.225Z,29.90
2022-10-14T01:01:43.135Z,29.80
2022-10-14T01:04:10.011Z,29.80
2022-10-14T01:06:55.571Z,29.70
2022-10-14T01:09:47.788Z,29.90
2022-10-14T01:12:29.076Z,29.40
2022-10-14T01:15:30.946Z,29.80
2022-10-14T01:18:10.040Z,29.30
2022-10-14T01:20:48.877Z,29.80
2022-10-14T01:23:42.206Z,29.70
2022-10-14T01:26:27.135Z,29.60
2022-10-14T01:29:11.822Z,29.40
2022-10-14T01:32:20.225Z,29.40
2022-10-14T01:35:00.714Z,29.30
2022-10-14T01:37:30.325Z,29.60
2022-10-14T01:40:06.999Z,29.60
2022-10-14T01:42:37.203Z,29.40
2022-10-14T01:45:11.708Z,29.40
2022-10-14T01:47:41.037Z,30.10
2022-10-14T01:50:18.485Z,29.30
2022-10-14T01:53:00.102Z,29.20
2022-10-14T01:55:31.856Z,29.00
2022-10-14T01:58:00.046Z,29.40
2022-10-14T02:00:27.108Z,29.50
2022-10-14T02:02:54.068Z,29.50
2022-10-14T02:05:49.697Z,29.60
2022-10-14T02:08:28.263Z,29.40
2022-10-14T02:11:08.994Z,29.80
2022-10-14T02:13:45.198Z,29.60
2022-10-14T02:16:29.080Z,29.40
2022-10-14T02:19:23.538Z,29.30
2022-10-14T02:21:56.124Z,29.40
2022-10-14T02:24:34.158Z,29.50
2022-10-14T02:27:05.620Z,29.40
2022-10-14T02:29:34.471Z,29.40
2022-10-14T02:32:02.926Z,29.30
2022-10-14T02:34:29.796Z,29.40
2022-10-14T02:36:57.440Z,29.60
2022-10-14T02:39:35.856Z,29.40
2022-10-14T02:42:03.696Z,29.30
2022-10-14T02:44:30.725Z,29.70
2022-10-14T02:46:57.665Z,29.70
2022-10-14T02:49:24.504Z,29.80
2022-10-14T02:51:51.452Z,29.70
2022-10-14T02:54:18.259Z,29.70
2022-10-14T02:56:45.888Z,29.70
2022-10-14T02:59:12.789Z,30.70
2022-10-14T03:01:39.649Z,29.70
2022-10-14T03:04:06.496Z,29.70
2022-10-14T03:06:33.297Z,29.70
2022-10-14T03:09:00.131Z,29.70
2022-10-14T03:11:27.077Z,29.70
2022-10-14T03:13:53.992Z,29.90
2022-10-14T03:16:21.066Z,30.00
2022-10-14T03:18:48.066Z,30.30
2022-10-14T03:21:14.875Z,30.50
2022-10-14T03:23:41.774Z,30.70
2022-10-14T03:26:13.046Z,30.80
2022-10-14T03:28:40.966Z,30.70
2022-10-14T03:31:08.287Z,31.00
2022-10-14T03:33:35.276Z,31.10
2022-10-14T03:36:02.195Z,30.90
2022-10-14T03:38:29.160Z,31.20
2022-10-14T03:40:56.075Z,31.40
2022-10-14T03:43:23.002Z,31.70
2022-10-14T03:45:49.996Z,30.50
2022-10-14T03:48:17.064Z,31.80
2022-10-14T03:50:43.881Z,33.10
2022-10-14T03:53:10.861Z,32.10
2022-10-14T03:55:37.770Z,32.20
2022-10-14T03:58:05.557Z,32.50
2022-10-14T04:00:32.971Z,32.60
2022-10-14T04:02:59.889Z,32.90
2022-10-14T04:05:29.225Z,33.10
2022-10-14T04:07:56.172Z,33.20
2022-10-14T04:10:23.083Z,33.40
2022-10-14T04:12:50.891Z,33.60
2022-10-14T04:15:17.823Z,34.00
2022-10-14T04:17:44.778Z,34.00
2022-10-14T04:20:12.464Z,34.20
2022-10-14T04:22:39.502Z,34.40
2022-10-14T04:25:07.302Z,34.70
2022-10-14T04:27:34.320Z,34.80
2022-10-14T04:30:01.328Z,36.20
2022-10-14T04:32:28.217Z,35.20
2022-10-14T04:34:55.055Z,35.40
2022-10-14T04:37:21.945Z,35.50
2022-10-14T04:39:48.848Z,35.80
2022-10-14T04:42:15.871Z,35.90
2022-10-14T04:44:42.721Z,35.90
2022-10-14T04:47:09.568Z,36.10
2022-10-14T04:49:36.442Z,36.00
2022-10-14T04:52:03.690Z,36.00
2022-10-14T04:54:30.840Z,36.00
2022-10-14T04:56:57.755Z,36.10
2022-10-14T04:59:24.599Z,36.20
2022-10-14T05:01:51.570Z,36.00
2022-10-14T05:04:18.545Z,36.00
2022-10-14T05:06:45.448Z,36.00
2022-10-14T05:09:12.646Z,35.90
2022-10-14T05:11:39.759Z,33.90
2022-10-14T05:14:06.852Z,36.10
2022-10-14T05:16:33.938Z,36.30
2022-10-14T05:19:01.014Z,36.70
2022-10-14T05:21:31.015Z,36.80
2022-10-14T05:23:57.900Z,37.00
2022-10-14T05:26:24.962Z,37.40
2022-10-14T05:28:52.767Z,37.50
2022-10-14T05:31:19.772Z,37.90
2022-10-14T05:33:46.650Z,38.00
2022-10-14T05:36:13.680Z,38.30
2022-10-14T05:38:40.742Z,38.40
2022-10-14T05:41:07.694Z,38.70
2022-10-14T05:43:34.757Z,38.80
2022-10-14T05:46:01.914Z,38.90
2022-10-14T05:48:28.942Z,39.00
2022-10-14T05:50:56.044Z,39.00
2022-10-14T05:53:23.135Z,39.30
2022-10-14T05:55:50.064Z,39.40
2022-10-14T05:58:17.636Z,39.40
2022-10-14T06:00:45.130Z,39.70
2022-10-14T06:03:13.175Z,39.80
2022-10-14T06:05:40.500Z,39.80
2022-10-14T06:08:07.502Z,39.50
2022-10-14T06:10:35.677Z,39.40
2022-10-14T06:13:02.754Z,39.70
2022-10-14T06:15:29.855Z,41.00
2022-10-14T06:17:56.963Z,39.90
2022-10-14T06:20:23.967Z,39.80
2022-10-14T06:22:51.014Z,39.80
2022-10-14T06:25:19.034Z,39.90
2022-10-14T06:27:46.064Z,39.90
2022-10-14T06:30:14.206Z,39.90
2022-10-14T06:32:41.069Z,40.10
2022-10-14T06:35:08.702Z,40.40
2022-10-14T06:37:36.008Z,40.60
2022-10-14T06:40:03.029Z,40.70
2022-10-14T06:42:30.265Z,40.90
2022-10-14T06:44:57.199Z,41.20
2022-10-14T06:47:24.229Z,41.10
2022-10-14T06:49:51.103Z,41.20
2022-10-14T06:52:17.991Z,41.20
2022-10-14T06:54:48.263Z,41.00
2022-10-14T06:57:16.196Z,41.50
2022-10-14T06:59:43.400Z,41.30
2022-10-14T07:02:11.098Z,41.40
2022-10-14T07:04:40.000Z,41.30
2022-10-14T07:07:08.517Z,41.40
2022-10-14T07:09:35.826Z,41.20
2022-10-14T07:12:02.766Z,41.00
2022-10-14T07:14:32.687Z,41.50
2022-10-14T07:17:00.518Z,41.10
2022-10-14T07:19:27.454Z,41.10
2022-10-14T07:21:54.521Z,41.10
2022-10-14T07:24:21.550Z,40.70
2022-10-14T07:26:48.514Z,40.60
2022-10-14T07:29:15.686Z,40.30
2022-10-14T07:31:42.849Z,40.20
2022-10-14T07:34:10.215Z,40.00
2022-10-14T07:36:37.313Z,40.20
2022-10-14T07:39:05.925Z,40.20
2022-10-14T07:41:33.811Z,40.10
2022-10-14T07:44:05.979Z,39.80
2022-10-14T07:46:34.989Z,39.60
2022-10-14T07:49:06.947Z,39.50
2022-10-14T07:51:35.843Z,38.70
2022-10-14T07:54:07.003Z,38.50
2022-10-14T07:56:36.502Z,38.00
2022-10-14T07:59:04.025Z,37.50
2022-10-14T08:01:31.401Z,37.10
2022-10-14T08:03:58.909Z,36.40
2022-10-14T08:06:26.547Z,36.60
2022-10-14T08:08:53.841Z,36.20
2022-10-14T08:11:26.723Z,35.70
2022-10-14T08:13:54.174Z,35.50
2022-10-14T08:16:24.914Z,35.50
2022-10-14T08:18:53.010Z,35.60
2022-10-14T08:21:21.587Z,35.60
2022-10-14T08:23:49.139Z,35.10
2022-10-14T08:26:34.228Z,35.00
2022-10-14T08:29:03.910Z,34.60
2022-10-14T08:31:32.047Z,34.70
2022-10-14T08:33:59.856Z,34.30
2022-10-14T08:36:27.239Z,33.90
2022-10-14T08:38:55.220Z,33.40
2022-10-14T08:41:34.536Z,33.30
2022-10-14T08:44:23.145Z,32.90
2022-10-14T08:46:55.618Z,32.10
2022-10-14T08:49:22.737Z,32.40
2022-10-14T08:52:00.172Z,32.70
2022-10-14T08:54:40.461Z,32.00
2022-10-14T08:57:16.574Z,31.40
2022-10-14T08:59:43.744Z,31.10
2022-10-14T09:02:29.441Z,30.80
2022-10-14T09:04:58.963Z,30.00
2022-10-14T09:07:26.172Z,30.20
2022-10-14T09:10:03.954Z,30.50
2022-10-14T09:12:35.330Z,29.90
2022-10-14T09:15:28.461Z,30.00
2022-10-14T09:17:58.512Z,29.40
2022-10-14T09:20:25.866Z,29.60
2022-10-14T09:23:04.836Z,29.60
2022-10-14T09:25:35.101Z,29.10
2022-10-14T09:28:02.276Z,29.30
2022-10-14T09:30:33.590Z,28.80
2022-10-14T09:33:00.958Z,28.40
2022-10-14T09:35:37.595Z,27.20
2022-10-14T09:38:04.961Z,27.10
2022-10-14T09:40:37.836Z,25.70
2022-10-14T09:43:17.106Z,26.70
2022-10-14T09:46:00.472Z,25.80
2022-10-14T09:48:32.343Z,25.40
2022-10-14T09:51:03.136Z,26.20
2022-10-14T09:53:47.008Z,26.30
2022-10-14T09:56:14.615Z,26.00
2022-10-14T09:58:52.423Z,25.70
2022-10-14T10:01:22.263Z,25.70
2022-10-14T10:03:50.784Z,25.70
2022-10-14T10:06:27.722Z,25.00
2022-10-14T10:08:57.429Z,24.40
2022-10-14T10:11:44.635Z,25.10
2022-10-14T10:14:33.617Z,25.10
2022-10-14T10:17:10.113Z,24.60
2022-10-14T10:19:39.770Z,26.30
2022-10-14T10:22:23.865Z,24.80
2022-10-14T10:24:52.514Z,24.00
2022-10-14T10:27:27.704Z,24.60
2022-10-14T10:29:58.192Z,24.00
2022-10-14T10:32:38.992Z,24.00
2022-10-14T10:35:30.119Z,24.00
2022-10-14T10:38:16.803Z,24.00
2022-10-14T10:41:03.393Z,24.00
2022-10-14T10:43:33.336Z,24.60
2022-10-14T10:46:18.387Z,24.10
2022-10-14T10:49:07.545Z,24.20
2022-10-14T10:51:49.019Z,24.10
2022-10-14T10:54:37.257Z,24.10
2022-10-14T10:57:46.030Z,24.20
2022-10-14T11:00:16.565Z,24.20
2022-10-14T11:03:08.616Z,24.20
2022-10-14T11:06:02.960Z,24.20
2022-10-14T11:09:02.257Z,24.20
2022-10-14T11:11:57.934Z,24.20
2022-10-14T11:14:46.289Z,24.10
2022-10-14T11:17:45.555Z,24.10
2022-10-14T11:20:37.494Z,24.20
2022-10-14T11:23:34.833Z,24.20
2022-10-14T11:26:26.664Z,24.30
2022-10-14T11:29:01.598Z,24.30
2022-10-14T11:31:41.095Z,24.30
2022-10-14T11:34:20.012Z,23.70
2022-10-14T11:37:24.969Z,24.30
2022-10-14T11:40:30.300Z,23.70
2022-10-14T11:43:32.800Z,23.60
2022-10-14T11:46:01.710Z,23.40
2022-10-14T11:49:14.096Z,24.40
2022-10-14T11:52:03.125Z,23.20
2022-10-14T11:54:41.244Z,24.50
2022-10-14T11:57:20.154Z,24.30
2022-10-14T12:00:08.965Z,23.10
2022-10-14T12:02:52.793Z,22.60
2022-10-14T12:05:38.797Z,22.50
2022-10-14T12:08:05.756Z,22.30
2022-10-14T12:10:43.038Z,22.30
2022-10-14T12:13:17.028Z,21.70
2022-10-14T12:15:50.239Z,21.40
2022-10-14T12:18:17.621Z,21.20
2022-10-14T12:20:58.949Z,20.80
2022-10-14T12:23:41.041Z,20.90
2022-10-14T12:26:20.483Z,20.70
2022-10-14T12:28:48.663Z,20.90
2022-10-14T12:31:35.908Z,21.20
2022-10-14T12:34:11.829Z,20.40
2022-10-14T12:36:41.572Z,20.70
2022-10-14T12:39:17.741Z,20.70
2022-10-14T12:41:56.111Z,20.50
2022-10-14T12:44:27.995Z,20.50
2022-10-14T12:46:55.191Z,21.20
2022-10-14T12:49:35.259Z,21.60
2022-10-14T12:52:06.328Z,22.10
2022-10-14T12:54:36.785Z,23.40
2022-10-14T12:57:27.865Z,24.80
2022-10-14T12:59:57.810Z,24.70
2022-10-14T13:02:32.540Z,24.80
2022-10-14T13:05:21.030Z,24.80
2022-10-14T13:08:08.055Z,24.80
2022-10-14T13:10:43.233Z,24.80
2022-10-14T13:13:38.537Z,24.80
2022-10-14T13:16:06.927Z,24.90
2022-10-14T13:18:43.021Z,24.90
2022-10-14T13:21:20.345Z,25.10
2022-10-14T13:23:51.046Z,24.90
2022-10-14T13:26:46.342Z,24.80
2022-10-14T13:29:34.416Z,24.80
2022-10-14T13:32:25.889Z,24.90
2022-10-14T13:35:08.339Z,25.30
2022-10-14T13:37:36.574Z,24.80
2022-10-14T13:40:38.699Z,24.80
2022-10-14T13:43:20.697Z,24.80
2022-10-14T13:45:56.250Z,24.90
2022-10-14T13:48:46.254Z,24.90
2022-10-14T13:51:43.131Z,24.90
2022-10-14T13:54:18.432Z,24.80
2022-10-14T13:57:12.601Z,24.70
2022-10-14T14:00:27.841Z,26.00
2022-10-14T14:02:34.346Z,27.20
2022-10-14T14:05:01.458Z,27.70
2022-10-14T14:08:14.590Z,27.80
2022-10-14T14:10:28.195Z,27.80
2022-10-14T14:13:02.360Z,28.00
2022-10-14T14:15:29.979Z,27.80
2022-10-14T14:17:57.054Z,27.60
2022-10-14T14:20:29.115Z,27.80
2022-10-14T14:22:58.534Z,27.70
2022-10-14T14:25:43.042Z,27.90
2022-10-14T14:28:15.487Z,28.20
2022-10-14T14:30:54.916Z,28.50
2022-10-14T14:33:32.594Z,29.00
2022-10-14T14:36:04.783Z,29.40
2022-10-14T14:38:37.256Z,30.00
2022-10-14T14:41:18.723Z,30.00
2022-10-14T14:43:50.118Z,30.00
2022-10-14T14:46:39.556Z,29.30
2022-10-14T14:49:07.819Z,31.00
2022-10-14T14:51:40.339Z,31.00
2022-10-14T14:54:08.216Z,31.20
2022-10-14T14:56:45.792Z,31.20
2022-10-14T14:59:29.142Z,30.80
2022-10-14T15:01:57.578Z,30.50
2022-10-14T15:04:26.835Z,30.50
2022-10-14T15:06:59.891Z,30.00
2022-10-14T15:09:43.917Z,29.80
2022-10-14T15:12:23.274Z,29.30
2022-10-14T15:14:59.089Z,29.30
2022-10-14T15:17:32.202Z,28.50
2022-10-14T15:20:05.322Z,28.10
2022-10-14T15:22:41.143Z,27.90
2022-10-14T15:25:25.285Z,27.70
2022-10-14T15:28:00.017Z,27.80
2022-10-14T15:30:53.158Z,27.90
2022-10-14T15:33:22.792Z,27.40
2022-10-14T15:36:00.088Z,27.90
2022-10-14T15:38:28.255Z,27.30
2022-10-14T15:40:55.739Z,26.70
2022-10-14T15:43:25.047Z,27.00
2022-10-14T15:46:12.957Z,27.00
2022-10-14T15:48:45.905Z,26.30
2022-10-14T15:51:16.971Z,26.30
2022-10-14T15:53:43.926Z,26.20
2022-10-14T15:56:11.005Z,25.70
2022-10-14T15:58:38.101Z,25.00
2022-10-14T16:01:09.226Z,24.00
2022-10-14T16:03:40.869Z,24.00
2022-10-14T16:06:09.090Z,23.90
2022-10-14T16:08:35.949Z,23.90
2022-10-14T16:11:04.278Z,24.00
2022-10-14T16:13:31.314Z,23.80
2022-10-14T16:16:05.796Z,23.90
2022-10-14T16:18:32.730Z,23.80
2022-10-14T16:20:59.668Z,23.80
2022-10-14T16:23:32.542Z,23.80
2022-10-14T16:26:00.338Z,23.70
2022-10-14T16:28:27.272Z,23.70
2022-10-14T16:30:54.204Z,23.70
2022-10-14T16:33:22.163Z,23.80
2022-10-14T16:35:54.837Z,24.20
2022-10-14T16:38:24.139Z,24.30
2022-10-14T16:40:59.860Z,24.30
2022-10-14T16:43:27.665Z,24.30
2022-10-14T16:45:59.541Z,25.00
2022-10-14T16:48:27.919Z,25.20
2022-10-14T16:50:55.389Z,25.50
2022-10-14T16:53:41.452Z,25.80
2022-10-14T16:56:33.545Z,26.30
2022-10-14T16:59:02.098Z,26.70
2022-10-14T17:01:29.344Z,27.20
2022-10-14T17:03:57.261Z,27.20
2022-10-14T17:06:25.207Z,27.10
2022-10-14T17:08:52.724Z,27.40
2022-10-14T17:11:20.154Z,27.80
2022-10-14T17:13:47.205Z,28.10
2022-10-14T17:16:14.121Z,28.30
2022-10-14T17:18:41.076Z,28.30
2022-10-14T17:21:12.059Z,28.30
2022-10-14T17:23:43.591Z,28.20
2022-10-14T17:26:15.681Z,28.00
2022-10-14T17:28:42.814Z,27.80
2022-10-14T17:31:13.294Z,27.50
2022-10-14T17:33:41.106Z,27.20
2022-10-14T17:36:13.961Z,26.90
2022-10-14T17:38:40.991Z,26.60
2022-10-14T17:41:10.180Z,26.50
2022-10-14T17:43:37.597Z,26.30
2022-10-14T17:46:11.696Z,26.20
2022-10-14T17:48:43.632Z,26.10
2022-10-14T17:51:11.864Z,26.30
2022-10-14T17:53:39.804Z,27.20
2022-10-14T17:56:12.019Z,26.30
2022-10-14T17:58:39.468Z,26.60
2022-10-14T18:01:09.039Z,26.60
2022-10-14T18:03:38.774Z,26.70
2022-10-14T18:06:20.225Z,26.80
2022-10-14T18:08:54.769Z,26.90
2022-10-14T18:11:23.199Z,26.80
2022-10-14T18:13:56.435Z,26.90
2022-10-14T18:16:25.594Z,27.20
2022-10-14T18:18:54.015Z,27.00
2022-10-14T18:21:21.537Z,27.00
2022-10-14T18:23:49.607Z,27.20
2022-10-14T18:26:18.765Z,27.30
2022-10-14T18:28:53.275Z,27.20
2022-10-14T18:31:26.267Z,27.40
2022-10-14T18:33:54.385Z,27.60
2022-10-14T18:36:24.681Z,27.80
2022-10-14T18:38:53.643Z,27.90
2022-10-14T18:41:21.275Z,28.10
2022-10-14T18:43:48.763Z,28.20
2022-10-14T18:46:21.276Z,28.50
2022-10-14T18:48:52.880Z,28.50
2022-10-14T18:51:25.694Z,28.80
2022-10-14T18:53:55.985Z,29.20
2022-10-14T18:56:25.507Z,29.50
2022-10-14T18:59:00.827Z,29.70
2022-10-14T19:01:29.089Z,29.90
2022-10-14T19:03:56.739Z,30.20
2022-10-14T19:06:24.363Z,30.50
2022-10-14T19:08:52.062Z,30.90
2022-10-14T19:11:24.824Z,31.30
2022-10-14T19:13:54.153Z,31.60
2022-10-14T19:16:23.905Z,31.80
2022-10-14T19:18:55.481Z,32.10
2022-10-14T19:21:26.502Z,32.30
2022-10-14T19:23:53.464Z,33.00
2022-10-14T19:26:23.179Z,33.10
2022-10-14T19:28:52.104Z,33.30
2022-10-14T19:31:28.591Z,33.70
2022-10-14T19:33:56.644Z,33.90
2022-10-14T19:36:25.334Z,34.50
2022-10-14T19:39:00.129Z,34.90
2022-10-14T19:41:29.393Z,35.00
2022-10-14T19:43:58.466Z,35.50
2022-10-14T19:46:27.777Z,35.90
2022-10-14T19:49:02.205Z,36.20
2022-10-14T19:51:29.332Z,36.80
2022-10-14T19:53:56.987Z,37.30
2022-10-14T19:56:25.686Z,37.80
2022-10-14T19:58:54.138Z,38.00
2022-10-14T20:01:23.796Z,38.70
2022-10-14T20:03:51.828Z,39.10
2022-10-14T20:06:20.150Z,39.70
2022-10-14T20:08:47.100Z,40.10
2022-10-14T20:11:17.243Z,40.50
2022-10-14T20:13:45.193Z,41.00
2022-10-14T20:16:12.947Z,41.30
2022-10-14T20:18:40.094Z,41.80
2022-10-14T20:21:08.351Z,41.90
2022-10-14T20:23:36.589Z,42.20
2022-10-14T20:26:08.936Z,42.60
2022-10-14T20:28:37.054Z,42.80
2022-10-14T20:31:07.411Z,44.00
2022-10-14T20:33:34.484Z,44.80
2022-10-14T20:36:03.763Z,44.60
2022-10-14T20:38:30.996Z,44.60
2022-10-14T20:41:20.169Z,44.50
2022-10-14T20:43:47.701Z,43.60
2022-10-14T20:46:15.246Z,44.60
2022-10-14T20:48:42.689Z,44.50
2022-10-14T20:51:13.360Z,44.60
2022-10-14T20:56:11.114Z,44.60
2022-10-14T20:58:38.744Z,44.90
2022-10-14T21:01:16.812Z,44.80
2022-10-14T21:03:45.615Z,45.30
2022-10-14T21:06:18.892Z,45.50
2022-10-14T21:08:46.641Z,45.40
2022-10-14T21:11:16.445Z,45.30
2022-10-14T21:13:48.327Z,45.30
2022-10-14T21:16:15.664Z,45.40
2022-10-14T21:18:55.003Z,45.40
2022-10-14T21:21:26.341Z,45.60
2022-10-14T21:23:53.686Z,46.10
2022-10-14T21:26:20.791Z,46.00
2022-10-14T21:28:47.782Z,46.90
2022-10-14T21:31:18.711Z,47.00
2022-10-14T21:33:47.767Z,47.20
2022-10-14T21:36:16.625Z,47.50
2022-10-14T21:38:43.833Z,47.70
2022-10-14T21:41:11.310Z,47.50
2022-10-14T21:43:39.001Z,47.40
2022-10-14T21:46:14.652Z,47.60
2022-10-14T21:48:42.935Z,47.70
2022-10-14T21:51:11.230Z,48.10
2022-10-14T21:53:39.973Z,48.20
2022-10-14T21:56:07.493Z,48.70
2022-10-14T21:58:35.561Z,49.30
2022-10-14T22:01:05.954Z,49.40
2022-10-14T22:03:33.406Z,49.30
2022-10-14T22:06:13.519Z,49.40
2022-10-14T22:08:45.804Z,49.30
2022-10-14T22:11:24.871Z,49.30
2022-10-14T22:13:53.713Z,49.40
2022-10-14T22:16:20.990Z,49.40
2022-10-14T22:18:50.663Z,49.30
2022-10-14T22:21:20.820Z,49.30
2022-10-14T22:23:48.752Z,49.30
2022-10-14T22:26:18.660Z,49.30
2022-10-14T22:28:46.491Z,49.30
2022-10-14T22:31:22.505Z,49.40
2022-10-14T22:33:49.334Z,49.40
2022-10-14T22:36:22.658Z,49.40
2022-10-14T22:38:52.672Z,49.40
2022-10-14T22:41:20.389Z,49.40
2022-10-14T22:43:52.242Z,49.40
2022-10-14T22:46:21.858Z,49.40
2022-10-14T22:48:50.306Z,49.50
2022-10-14T22:51:20.077Z,49.40
2022-10-14T22:53:47.106Z,49.50
2022-10-14T22:56:17.517Z,49.40
2022-10-14T22:58:44.491Z,49.40
2022-10-14T23:01:14.288Z,49.40
2022-10-14T23:03:42.136Z,49.60
2022-10-14T23:06:12.141Z,49.40
2022-10-14T23:08:39.810Z,49.40
2022-10-14T23:11:07.201Z,49.40
2022-10-14T23:13:34.667Z,49.50
2022-10-14T23:16:06.884Z,49.50
2022-10-14T23:18:38.758Z,49.50
2022-10-14T23:21:18.453Z,49.50
2022-10-14T23:23:46.515Z,49.60
2022-10-14T23:26:16.963Z,50.70
2022-10-14T23:28:48.744Z,50.60
2022-10-14T23:31:17.774Z,50.80
2022-10-14T23:33:44.733Z,50.90
2022-10-14T23:36:13.487Z,51.40
2022-10-14T23:38:41.018Z,51.70
2022-10-14T23:41:09.491Z,51.60
2022-10-14T23:43:37.260Z,51.80
2022-10-14T23:46:05.429Z,51.90
2022-10-14T23:48:32.792Z,51.90
2022-10-14T23:51:00.135Z,52.30
2022-10-14T23:53:27.526Z,52.30
2022-10-14T23:55:55.546Z,52.20
2022-10-14T23:58:23.585Z,52.30
